sensor_id;sensor_type;location;lat;lon;timestamp;pressure;altitude;pressure_sealevel;temperature;humidity
64368;BME280;50692;53.314;-6.300;2023-04-23T00:01:30;99826.81;;;9.72;89.14
64368;BME280;50692;53.314;-6.300;2023-04-23T00:04:20;99832.09;;;9.72;89.11
64368;BME280;50692;53.314;-6.300;2023-04-23T00:07:07;99825.59;;;9.63;89.48
64368;BME280;50692;53.314;-6.300;2023-04-23T00:09:55;99830.00;;;9.63;89.21
64368;BME280;50692;53.314;-6.300;2023-04-23T00:12:42;99829.28;;;9.46;89.05
64368;BME280;50692;53.314;-6.300;2023-04-23T00:15:29;99819.69;;;9.31;89.16
64368;BME280;50692;53.314;-6.300;2023-04-23T00:18:15;99826.28;;;9.24;89.37
64368;BME280;50692;53.314;-6.300;2023-04-23T00:21:01;99828.00;;;9.10;89.65
64368;BME280;50692;53.314;-6.300;2023-04-23T00:23:47;99828.06;;;9.09;89.69
64368;BME280;50692;53.314;-6.300;2023-04-23T00:26:33;99806.88;;;8.96;89.68
64368;BME280;50692;53.314;-6.300;2023-04-23T00:29:19;99825.25;;;9.12;89.42
64368;BME280;50692;53.314;-6.300;2023-04-23T00:32:05;99829.66;;;9.11;89.22
64368;BME280;50692;53.314;-6.300;2023-04-23T00:34:52;99824.41;;;9.11;89.10
64368;BME280;50692;53.314;-6.300;2023-04-23T00:37:39;99829.13;;;9.06;89.09
64368;BME280;50692;53.314;-6.300;2023-04-23T00:40:25;99824.69;;;9.07;89.64
64368;BME280;50692;53.314;-6.300;2023-04-23T00:43:11;99835.78;;;9.12;89.37
64368;BME280;50692;53.314;-6.300;2023-04-23T00:45:58;99829.66;;;9.11;89.34
64368;BME280;50692;53.314;-6.300;2023-04-23T00:48:44;99821.94;;;9.08;89.02
64368;BME280;50692;53.314;-6.300;2023-04-23T00:51:31;99835.78;;;9.12;88.79
64368;BME280;50692;53.314;-6.300;2023-04-23T00:54:17;99838.25;;;9.15;89.02
64368;BME280;50692;53.314;-6.300;2023-04-23T00:57:03;99831.09;;;9.17;88.58
64368;BME280;50692;53.314;-6.300;2023-04-23T00:59:49;99817.34;;;9.12;88.78
64368;BME280;50692;53.314;-6.300;2023-04-23T01:02:36;99816.31;;;9.15;89.06
64368;BME280;50692;53.314;-6.300;2023-04-23T01:05:22;99815.00;;;9.07;89.09
64368;BME280;50692;53.314;-6.300;2023-04-23T01:08:13;99819.59;;;9.04;88.70
64368;BME280;50692;53.314;-6.300;2023-04-23T01:11:01;99821.28;;;9.05;87.80
64368;BME280;50692;53.314;-6.300;2023-04-23T01:13:49;99819.13;;;8.97;87.50
64368;BME280;50692;53.314;-6.300;2023-04-23T01:16:35;99827.56;;;8.88;86.99
64368;BME280;50692;53.314;-6.300;2023-04-23T01:19:22;99824.19;;;8.86;86.88
64368;BME280;50692;53.314;-6.300;2023-04-23T01:22:10;99822.59;;;8.83;86.64
64368;BME280;50692;53.314;-6.300;2023-04-23T01:24:56;99827.97;;;8.82;86.60
64368;BME280;50692;53.314;-6.300;2023-04-23T01:27:42;99823.81;;;8.78;86.29
64368;BME280;50692;53.314;-6.300;2023-04-23T01:30:29;99823.44;;;8.84;86.07
64368;BME280;50692;53.314;-6.300;2023-04-23T01:33:15;99828.97;;;8.79;85.59
64368;BME280;50692;53.314;-6.300;2023-04-23T01:36:01;99828.13;;;8.79;85.36
64368;BME280;50692;53.314;-6.300;2023-04-23T01:38:47;99820.41;;;8.76;84.98
64368;BME280;50692;53.314;-6.300;2023-04-23T01:41:34;99826.13;;;8.68;84.81
64368;BME280;50692;53.314;-6.300;2023-04-23T01:44:20;99822.16;;;8.61;84.58
64368;BME280;50692;53.314;-6.300;2023-04-23T01:47:06;99821.69;;;8.54;84.16
64368;BME280;50692;53.314;-6.300;2023-04-23T01:49:52;99811.41;;;8.50;84.13
64368;BME280;50692;53.314;-6.300;2023-04-23T01:52:38;99816.94;;;8.45;84.17
64368;BME280;50692;53.314;-6.300;2023-04-23T01:55:25;99817.97;;;8.43;84.36
64368;BME280;50692;53.314;-6.300;2023-04-23T01:58:10;99820.78;;;8.39;84.01
64368;BME280;50692;53.314;-6.300;2023-04-23T02:00:56;99820.63;;;8.43;84.05
64368;BME280;50692;53.314;-6.300;2023-04-23T02:03:43;99816.88;;;8.47;83.89
64368;BME280;50692;53.314;-6.300;2023-04-23T02:06:29;99806.22;;;8.48;83.92
64368;BME280;50692;53.314;-6.300;2023-04-23T02:09:16;99802.25;;;8.41;83.71
64368;BME280;50692;53.314;-6.300;2023-04-23T02:12:02;99804.81;;;8.43;83.87
64368;BME280;50692;53.314;-6.300;2023-04-23T02:14:48;99802.38;;;8.39;84.02
64368;BME280;50692;53.314;-6.300;2023-04-23T02:17:34;99816.88;;;8.47;83.94
64368;BME280;50692;53.314;-6.300;2023-04-23T02:20:20;99812.44;;;8.47;84.37
64368;BME280;50692;53.314;-6.300;2023-04-23T02:23:09;99804.88;;;8.41;84.30
64368;BME280;50692;53.314;-6.300;2023-04-23T02:25:55;99815.75;;;8.51;84.47
64368;BME280;50692;53.314;-6.300;2023-04-23T02:28:41;99822.13;;;8.47;83.76
64368;BME280;50692;53.314;-6.300;2023-04-23T02:31:27;99814.22;;;8.47;84.15
64368;BME280;50692;53.314;-6.300;2023-04-23T02:34:13;99813.38;;;8.46;84.04
64368;BME280;50692;53.314;-6.300;2023-04-23T02:36:58;99820.34;;;8.47;84.22
64368;BME280;50692;53.314;-6.300;2023-04-23T02:39:44;99820.34;;;8.47;84.40
64368;BME280;50692;53.314;-6.300;2023-04-23T02:42:30;99817.81;;;8.46;84.52
64368;BME280;50692;53.314;-6.300;2023-04-23T02:45:16;99812.72;;;8.43;84.14
64368;BME280;50692;53.314;-6.300;2023-04-23T02:48:02;99819.69;;;8.44;84.08
64368;BME280;50692;53.314;-6.300;2023-04-23T02:50:49;99820.34;;;8.47;85.09
64368;BME280;50692;53.314;-6.300;2023-04-23T02:53:35;99817.72;;;8.47;85.48
64368;BME280;50692;53.314;-6.300;2023-04-23T02:56:20;99813.47;;;8.45;85.96
64368;BME280;50692;53.314;-6.300;2023-04-23T02:59:06;99818.47;;;8.49;85.45
64368;BME280;50692;53.314;-6.300;2023-04-23T03:01:52;99815.84;;;8.49;85.48
64368;BME280;50692;53.314;-6.300;2023-04-23T03:04:38;99816.69;;;8.50;85.50
64368;BME280;50692;53.314;-6.300;2023-04-23T03:07:24;99815.91;;;8.48;86.09
64368;BME280;50692;53.314;-6.300;2023-04-23T03:10:10;99809.97;;;8.44;86.06
64368;BME280;50692;53.314;-6.300;2023-04-23T03:12:56;99809.81;;;8.47;86.00
64368;BME280;50692;53.314;-6.300;2023-04-23T03:15:42;99806.41;;;8.45;85.97
64368;BME280;50692;53.314;-6.300;2023-04-23T03:18:27;99810.66;;;8.48;86.59
64368;BME280;50692;53.314;-6.300;2023-04-23T03:21:13;99815.06;;;8.47;86.58
64368;BME280;50692;53.314;-6.300;2023-04-23T03:23:59;99817.53;;;8.50;86.69
64368;BME280;50692;53.314;-6.300;2023-04-23T03:26:45;99819.41;;;8.48;86.45
64368;BME280;50692;53.314;-6.300;2023-04-23T03:29:31;99826.56;;;8.46;87.07
64368;BME280;50692;53.314;-6.300;2023-04-23T03:32:17;99828.34;;;8.46;86.83
64368;BME280;50692;53.314;-6.300;2023-04-23T03:35:03;99825.44;;;8.50;86.85
64368;BME280;50692;53.314;-6.300;2023-04-23T03:37:49;99831.44;;;8.52;87.00
64368;BME280;50692;53.314;-6.300;2023-04-23T03:40:35;99797.59;;;8.30;86.98
64368;BME280;50692;53.314;-6.300;2023-04-23T03:43:21;99843.03;;;8.50;87.01
64368;BME280;50692;53.314;-6.300;2023-04-23T03:46:06;99830.69;;;8.50;87.48
64368;BME280;50692;53.314;-6.300;2023-04-23T03:48:52;99827.28;;;8.48;87.78
64368;BME280;50692;53.314;-6.300;2023-04-23T03:51:38;99822.13;;;8.47;87.87
64368;BME280;50692;53.314;-6.300;2023-04-23T03:54:24;99827.69;;;8.42;87.92
64368;BME280;50692;53.314;-6.300;2023-04-23T03:57:11;99831.81;;;8.46;88.29
64368;BME280;50692;53.314;-6.300;2023-04-23T03:59:56;99839.56;;;8.49;88.25
64368;BME280;50692;53.314;-6.300;2023-04-23T04:02:42;99832.84;;;8.44;88.32
64368;BME280;50692;53.314;-6.300;2023-04-23T04:05:28;99837.84;;;8.48;88.34
64368;BME280;50692;53.314;-6.300;2023-04-23T04:08:14;99834.28;;;8.49;88.60
64368;BME280;50692;53.314;-6.300;2023-04-23T04:11:00;99843.03;;;8.50;88.43
64368;BME280;50692;53.314;-6.300;2023-04-23T04:13:45;99842.59;;;8.41;88.54
64368;BME280;50692;53.314;-6.300;2023-04-23T04:16:31;99840.38;;;8.34;88.58
64368;BME280;50692;53.314;-6.300;2023-04-23T04:19:17;99843.72;;;8.37;88.45
64368;BME280;50692;53.314;-6.300;2023-04-23T04:22:03;99843.66;;;8.39;88.53
64368;BME280;50692;53.314;-6.300;2023-04-23T04:24:50;99842.81;;;8.38;88.48
64368;BME280;50692;53.314;-6.300;2023-04-23T04:27:37;99840.06;;;8.40;88.54
64368;BME280;50692;53.314;-6.300;2023-04-23T04:30:23;99838.38;;;8.39;88.57
64368;BME280;50692;53.314;-6.300;2023-04-23T04:33:09;99848.91;;;8.39;88.74
64368;BME280;50692;53.314;-6.300;2023-04-23T04:35:56;99836.72;;;8.36;88.79
64368;BME280;50692;53.314;-6.300;2023-04-23T04:38:42;99843.78;;;8.36;88.61
64368;BME280;50692;53.314;-6.300;2023-04-23T04:41:28;99814.94;;;8.18;88.73
64368;BME280;50692;53.314;-6.300;2023-04-23T04:44:14;99833.59;;;8.30;88.72
64368;BME280;50692;53.314;-6.300;2023-04-23T04:47:01;99835.28;;;8.31;88.77
64368;BME280;50692;53.314;-6.300;2023-04-23T04:49:47;99830.75;;;8.18;88.67
64368;BME280;50692;53.314;-6.300;2023-04-23T04:52:33;99833.38;;;8.18;88.79
64368;BME280;50692;53.314;-6.300;2023-04-23T04:55:19;99832.59;;;8.16;88.82
64368;BME280;50692;53.314;-6.300;2023-04-23T04:58:04;99842.03;;;8.21;88.95
64368;BME280;50692;53.314;-6.300;2023-04-23T05:00:50;99839.13;;;8.25;88.90
64368;BME280;50692;53.314;-6.300;2023-04-23T05:03:36;99846.19;;;8.25;89.11
64368;BME280;50692;53.314;-6.300;2023-04-23T05:06:23;99842.72;;;8.24;89.08
64368;BME280;50692;53.314;-6.300;2023-04-23T05:09:10;99854.09;;;8.25;89.52
64368;BME280;50692;53.314;-6.300;2023-04-23T05:11:56;99846.19;;;8.25;89.50
64368;BME280;50692;53.314;-6.300;2023-04-23T05:14:42;99840.94;;;8.25;89.46
64368;BME280;50692;53.314;-6.300;2023-04-23T05:17:28;99841.59;;;8.28;89.82
64368;BME280;50692;53.314;-6.300;2023-04-23T05:20:14;99851.28;;;8.28;89.51
64368;BME280;50692;53.314;-6.300;2023-04-23T05:22:59;99858.06;;;8.32;89.66
64368;BME280;50692;53.314;-6.300;2023-04-23T05:25:46;99861.56;;;8.32;89.54
64368;BME280;50692;53.314;-6.300;2023-04-23T05:28:32;99859.75;;;8.33;89.39
64368;BME280;50692;53.314;-6.300;2023-04-23T05:31:18;99866.72;;;8.34;89.60
64368;BME280;50692;53.314;-6.300;2023-04-23T05:34:04;99864.91;;;8.34;89.58
64368;BME280;50692;53.314;-6.300;2023-04-23T05:36:50;99867.75;;;8.31;89.97
64368;BME280;50692;53.314;-6.300;2023-04-23T05:39:36;99864.53;;;8.26;90.25
64368;BME280;50692;53.314;-6.300;2023-04-23T05:42:21;99875.72;;;8.30;90.44
64368;BME280;50692;53.314;-6.300;2023-04-23T05:45:08;99871.97;;;8.34;90.14
64368;BME280;50692;53.314;-6.300;2023-04-23T05:47:54;99881.44;;;8.38;90.52
64368;BME280;50692;53.314;-6.300;2023-04-23T05:50:39;99879.47;;;8.41;90.19
64368;BME280;50692;53.314;-6.300;2023-04-23T05:53:27;99869.81;;;8.42;90.29
64368;BME280;50692;53.314;-6.300;2023-04-23T05:56:13;99867.19;;;8.42;90.66
64368;BME280;50692;53.314;-6.300;2023-04-23T05:58:58;99870.56;;;8.44;91.15
64368;BME280;50692;53.314;-6.300;2023-04-23T06:01:45;99873.13;;;8.46;90.81
64368;BME280;50692;53.314;-6.300;2023-04-23T06:04:33;99869.25;;;8.51;90.85
64368;BME280;50692;53.314;-6.300;2023-04-23T06:07:18;99870.03;;;8.53;90.84
64368;BME280;50692;53.314;-6.300;2023-04-23T06:10:05;99869.94;;;8.55;90.98
64368;BME280;50692;53.314;-6.300;2023-04-23T06:12:51;99876.31;;;8.51;91.32
64368;BME280;50692;53.314;-6.300;2023-04-23T06:15:38;99870.38;;;8.47;91.33
64368;BME280;50692;53.314;-6.300;2023-04-23T06:18:24;99879.63;;;8.54;91.47
64368;BME280;50692;53.314;-6.300;2023-04-23T06:21:10;99873.41;;;8.55;91.41
64368;BME280;50692;53.314;-6.300;2023-04-23T06:23:56;99877.38;;;8.62;91.39
64368;BME280;50692;53.314;-6.300;2023-04-23T06:26:41;99887.84;;;8.64;91.45
64368;BME280;50692;53.314;-6.300;2023-04-23T06:29:28;99888.97;;;8.60;91.48
64368;BME280;50692;53.314;-6.300;2023-04-23T06:32:13;99890.16;;;8.54;91.69
64368;BME280;50692;53.314;-6.300;2023-04-23T06:35:00;99894.84;;;8.49;91.98
64368;BME280;50692;53.314;-6.300;2023-04-23T06:37:46;99895.31;;;8.56;92.35
64368;BME280;50692;53.314;-6.300;2023-04-23T06:40:32;99899.41;;;8.61;92.41
64368;BME280;50692;53.314;-6.300;2023-04-23T06:43:18;99899.56;;;8.58;92.25
64368;BME280;50692;53.314;-6.300;2023-04-23T06:46:04;99905.16;;;8.68;92.31
64368;BME280;50692;53.314;-6.300;2023-04-23T06:48:49;99906.78;;;8.71;91.96
64368;BME280;50692;53.314;-6.300;2023-04-23T06:51:35;99911.13;;;8.72;92.08
64368;BME280;50692;53.314;-6.300;2023-04-23T06:54:21;99924.69;;;8.80;92.25
64368;BME280;50692;53.314;-6.300;2023-04-23T06:57:08;99921.41;;;8.91;92.23
64368;BME280;50692;53.314;-6.300;2023-04-23T06:59:54;99920.97;;;8.98;91.99
64368;BME280;50692;53.314;-6.300;2023-04-23T07:02:41;99920.59;;;9.04;91.87
64368;BME280;50692;53.314;-6.300;2023-04-23T07:05:28;99914.31;;;9.07;91.99
64368;BME280;50692;53.314;-6.300;2023-04-23T07:08:14;99923.09;;;9.22;92.28
64368;BME280;50692;53.314;-6.300;2023-04-23T07:11:00;99918.50;;;9.40;92.59
64368;BME280;50692;53.314;-6.300;2023-04-23T07:13:46;99929.63;;;9.59;92.65
64368;BME280;50692;53.314;-6.300;2023-04-23T07:16:32;99933.88;;;9.76;92.20
64368;BME280;50692;53.314;-6.300;2023-04-23T07:19:18;99926.31;;;9.84;91.43
64368;BME280;50692;53.314;-6.300;2023-04-23T07:22:04;99926.22;;;9.85;90.56
64368;BME280;50692;53.314;-6.300;2023-04-23T07:24:50;99915.28;;;9.77;89.95
64368;BME280;50692;53.314;-6.300;2023-04-23T07:27:36;99933.00;;;9.90;89.52
64368;BME280;50692;53.314;-6.300;2023-04-23T07:30:24;99936.50;;;9.90;89.14
64368;BME280;50692;53.314;-6.300;2023-04-23T07:33:11;99933.72;;;10.06;89.51
64368;BME280;50692;53.314;-6.300;2023-04-23T07:35:56;99937.28;;;10.19;88.82
64368;BME280;50692;53.314;-6.300;2023-04-23T07:38:43;99933.03;;;10.31;88.03
64368;BME280;50692;53.314;-6.300;2023-04-23T07:41:29;99921.25;;;10.37;87.55
64368;BME280;50692;53.314;-6.300;2023-04-23T07:44:14;99935.25;;;10.51;87.15
64368;BME280;50692;53.314;-6.300;2023-04-23T07:47:00;99940.34;;;10.54;86.79
64368;BME280;50692;53.314;-6.300;2023-04-23T07:49:46;99936.88;;;10.67;86.72
64368;BME280;50692;53.314;-6.300;2023-04-23T07:52:32;99942.81;;;10.70;86.06
64368;BME280;50692;53.314;-6.300;2023-04-23T07:55:18;99945.38;;;10.72;85.54
64368;BME280;50692;53.314;-6.300;2023-04-23T07:58:05;99955.94;;;10.72;85.11
64368;BME280;50692;53.314;-6.300;2023-04-23T08:00:51;99951.69;;;10.69;85.04
64368;BME280;50692;53.314;-6.300;2023-04-23T08:03:36;99950.28;;;10.64;84.67
64368;BME280;50692;53.314;-6.300;2023-04-23T08:06:22;99940.41;;;10.53;85.07
64368;BME280;50692;53.314;-6.300;2023-04-23T08:09:08;99953.44;;;10.56;85.51
64368;BME280;50692;53.314;-6.300;2023-04-23T08:11:54;99947.63;;;10.51;85.18
64368;BME280;50692;53.314;-6.300;2023-04-23T08:14:43;99956.03;;;10.43;85.65
64368;BME280;50692;53.314;-6.300;2023-04-23T08:17:28;99948.97;;;10.44;85.66
64368;BME280;50692;53.314;-6.300;2023-04-23T08:20:14;99957.34;;;10.50;85.98
64368;BME280;50692;53.314;-6.300;2023-04-23T08:23:00;99958.22;;;10.64;85.99
64368;BME280;50692;53.314;-6.300;2023-04-23T08:25:46;99961.38;;;10.83;85.72
64368;BME280;50692;53.314;-6.300;2023-04-23T08:28:32;99959.75;;;11.08;85.78
64368;BME280;50692;53.314;-6.300;2023-04-23T08:31:18;99955.00;;;11.38;85.06
64368;BME280;50692;53.314;-6.300;2023-04-23T08:34:04;99959.56;;;11.62;83.96
64368;BME280;50692;53.314;-6.300;2023-04-23T08:36:50;99967.41;;;11.76;82.58
64368;BME280;50692;53.314;-6.300;2023-04-23T08:39:35;99952.41;;;11.89;80.88
64368;BME280;50692;53.314;-6.300;2023-04-23T08:45:31;99942.78;;;12.25;77.92
64368;BME280;50692;53.314;-6.300;2023-04-23T08:48:20;99953.59;;;12.46;77.00
64368;BME280;50692;53.314;-6.300;2023-04-23T08:51:08;99958.44;;;12.65;75.37
64368;BME280;50692;53.314;-6.300;2023-04-23T08:53:57;99957.69;;;12.87;74.04
64368;BME280;50692;53.314;-6.300;2023-04-23T08:56:43;99955.56;;;13.03;71.96
64368;BME280;50692;53.314;-6.300;2023-04-23T08:59:30;99960.34;;;13.22;69.57
64368;BME280;50692;53.314;-6.300;2023-04-23T09:02:19;99962.22;;;13.44;68.56
64368;BME280;50692;53.314;-6.300;2023-04-23T09:05:05;99958.50;;;13.58;68.51
64368;BME280;50692;53.314;-6.300;2023-04-23T09:07:51;99960.81;;;13.62;66.84
64368;BME280;50692;53.314;-6.300;2023-04-23T09:10:42;99960.91;;;13.61;66.27
64368;BME280;50692;53.314;-6.300;2023-04-23T09:13:32;99958.63;;;13.56;65.82
64368;BME280;50692;53.314;-6.300;2023-04-23T09:16:19;99964.91;;;13.55;64.30
64368;BME280;50692;53.314;-6.300;2023-04-23T09:19:07;99966.09;;;13.51;64.27
64368;BME280;50692;53.314;-6.300;2023-04-23T09:21:54;99971.88;;;13.45;64.34
64368;BME280;50692;53.314;-6.300;2023-04-23T09:24:43;99975.22;;;13.36;64.68
64368;BME280;50692;53.314;-6.300;2023-04-23T09:27:28;99977.63;;;13.28;65.78
64368;BME280;50692;53.314;-6.300;2023-04-23T09:30:15;99984.13;;;13.24;66.18
64368;BME280;50692;53.314;-6.300;2023-04-23T09:33:03;99981.06;;;13.17;66.39
64368;BME280;50692;53.314;-6.300;2023-04-23T09:35:49;99981.47;;;13.24;66.19
64368;BME280;50692;53.314;-6.300;2023-04-23T09:38:35;99984.38;;;13.32;65.26
64368;BME280;50692;53.314;-6.300;2023-04-23T09:41:25;99989.47;;;13.35;64.83
64368;BME280;50692;53.314;-6.300;2023-04-23T09:44:17;99992.69;;;13.27;62.21
64368;BME280;50692;53.314;-6.300;2023-04-23T09:47:06;99993.84;;;13.47;61.62
64368;BME280;50692;53.314;-6.300;2023-04-23T09:49:56;99999.66;;;13.75;60.88
64368;BME280;50692;53.314;-6.300;2023-04-23T09:52:43;99998.00;;;13.85;60.55
64368;BME280;50692;53.314;-6.300;2023-04-23T09:55:34;99995.47;;;13.72;60.66
64368;BME280;50692;53.314;-6.300;2023-04-23T09:58:23;99999.06;;;13.71;61.26
64368;BME280;50692;53.314;-6.300;2023-04-23T10:01:09;100009.66;;;13.49;61.28
64368;BME280;50692;53.314;-6.300;2023-04-23T10:03:55;100010.00;;;13.20;62.18
64368;BME280;50692;53.314;-6.300;2023-04-23T10:06:41;100014.44;;;13.08;62.67
64368;BME280;50692;53.314;-6.300;2023-04-23T10:09:28;100010.66;;;13.00;63.37
64368;BME280;50692;53.314;-6.300;2023-04-23T10:12:14;100008.47;;;12.93;63.78
64368;BME280;50692;53.314;-6.300;2023-04-23T10:15:03;100017.38;;;12.92;64.28
64368;BME280;50692;53.314;-6.300;2023-04-23T10:17:50;100018.63;;;13.24;63.85
64368;BME280;50692;53.314;-6.300;2023-04-23T10:20:36;100016.72;;;13.83;63.09
64368;BME280;50692;53.314;-6.300;2023-04-23T10:23:22;100015.66;;;14.20;60.15
64368;BME280;50692;53.314;-6.300;2023-04-23T10:26:10;100021.19;;;14.28;59.12
64368;BME280;50692;53.314;-6.300;2023-04-23T10:29:00;100020.22;;;14.06;58.32
64368;BME280;50692;53.314;-6.300;2023-04-23T10:31:47;100028.28;;;13.82;58.44
64368;BME280;50692;53.314;-6.300;2023-04-23T10:34:33;100027.91;;;13.64;59.20
64368;BME280;50692;53.314;-6.300;2023-04-23T10:37:19;100031.94;;;13.35;59.66
64368;BME280;50692;53.314;-6.300;2023-04-23T10:40:11;100040.47;;;13.27;60.23
64368;BME280;50692;53.314;-6.300;2023-04-23T10:42:59;100040.41;;;13.16;60.33
64368;BME280;50692;53.314;-6.300;2023-04-23T10:45:45;100037.97;;;13.13;60.54
64368;BME280;50692;53.314;-6.300;2023-04-23T10:48:50;100031.41;;;13.06;59.68
64368;BME280;50692;53.314;-6.300;2023-04-23T10:51:36;100049.06;;;13.18;60.25
64368;BME280;50692;53.314;-6.300;2023-04-23T10:54:28;100052.06;;;13.26;59.85
64368;BME280;50692;53.314;-6.300;2023-04-23T10:57:15;100033.91;;;13.20;58.54
64368;BME280;50692;53.314;-6.300;2023-04-23T11:00:00;100049.13;;;13.53;58.95
64368;BME280;50692;53.314;-6.300;2023-04-23T11:02:46;100055.97;;;13.80;59.05
64368;BME280;50692;53.314;-6.300;2023-04-23T11:05:34;100053.19;;;13.92;60.00
64368;BME280;50692;53.314;-6.300;2023-04-23T11:08:20;100056.94;;;13.90;58.92
64368;BME280;50692;53.314;-6.300;2023-04-23T11:11:07;100064.56;;;13.95;59.17
64368;BME280;50692;53.314;-6.300;2023-04-23T11:13:53;100056.66;;;13.82;59.85
64368;BME280;50692;53.314;-6.300;2023-04-23T11:16:39;100062.22;;;13.79;60.00
64368;BME280;50692;53.314;-6.300;2023-04-23T11:19:25;100073.22;;;13.85;60.62
64368;BME280;50692;53.314;-6.300;2023-04-23T11:22:15;100063.09;;;13.79;60.69
64368;BME280;50692;53.314;-6.300;2023-04-23T11:25:03;100062.94;;;13.70;60.91
64368;BME280;50692;53.314;-6.300;2023-04-23T11:27:52;100068.59;;;13.65;61.07
64368;BME280;50692;53.314;-6.300;2023-04-23T11:30:38;100075.28;;;13.47;61.43
64368;BME280;50692;53.314;-6.300;2023-04-23T11:33:24;100070.06;;;13.34;61.86
64368;BME280;50692;53.314;-6.300;2023-04-23T11:36:11;100074.53;;;13.20;62.26
64368;BME280;50692;53.314;-6.300;2023-04-23T11:38:57;100084.47;;;13.06;62.69
64368;BME280;50692;53.314;-6.300;2023-04-23T11:41:43;100089.50;;;12.98;63.40
64368;BME280;50692;53.314;-6.300;2023-04-23T11:44:31;100090.69;;;12.93;63.77
64368;BME280;50692;53.314;-6.300;2023-04-23T11:47:17;100099.44;;;12.83;63.78
64368;BME280;50692;53.314;-6.300;2023-04-23T11:50:03;100095.19;;;12.80;63.79
64368;BME280;50692;53.314;-6.300;2023-04-23T11:52:49;100098.47;;;12.84;63.92
64368;BME280;50692;53.314;-6.300;2023-04-23T11:55:35;100094.53;;;12.89;63.62
64368;BME280;50692;53.314;-6.300;2023-04-23T11:58:21;100102.38;;;12.91;63.19
64368;BME280;50692;53.314;-6.300;2023-04-23T12:01:07;100100.75;;;13.01;62.66
64368;BME280;50692;53.314;-6.300;2023-04-23T12:03:52;100100.38;;;13.18;62.52
64368;BME280;50692;53.314;-6.300;2023-04-23T12:06:43;100100.22;;;13.20;61.32
64368;BME280;50692;53.314;-6.300;2023-04-23T12:09:29;100108.94;;;13.22;60.33
64368;BME280;50692;53.314;-6.300;2023-04-23T12:12:14;100108.50;;;13.28;60.25
64368;BME280;50692;53.314;-6.300;2023-04-23T12:15:04;100107.72;;;13.39;60.09
64368;BME280;50692;53.314;-6.300;2023-04-23T12:18:07;100103.69;;;13.57;59.81
64368;BME280;50692;53.314;-6.300;2023-04-23T12:20:54;100106.25;;;13.70;59.40
64368;BME280;50692;53.314;-6.300;2023-04-23T12:23:41;100104.47;;;13.82;59.29
64368;BME280;50692;53.314;-6.300;2023-04-23T12:26:29;100100.41;;;14.00;59.10
64368;BME280;50692;53.314;-6.300;2023-04-23T12:29:17;100086.69;;;14.85;57.34
64368;BME280;50692;53.314;-6.300;2023-04-23T12:32:03;100105.59;;;15.78;55.19
64368;BME280;50692;53.314;-6.300;2023-04-23T12:34:51;100099.28;;;16.21;53.55
64368;BME280;50692;53.314;-6.300;2023-04-23T12:37:40;100097.00;;;16.38;53.51
64368;BME280;50692;53.314;-6.300;2023-04-23T12:40:25;100102.75;;;17.53;51.09
64368;BME280;50692;53.314;-6.300;2023-04-23T12:43:11;100098.06;;;18.50;49.29
64368;BME280;50692;53.314;-6.300;2023-04-23T12:45:58;100095.00;;;19.28;46.96
64368;BME280;50692;53.314;-6.300;2023-04-23T12:48:44;100099.19;;;19.48;45.89
64368;BME280;50692;53.314;-6.300;2023-04-23T12:51:30;100095.97;;;19.80;44.29
64368;BME280;50692;53.314;-6.300;2023-04-23T12:54:16;100093.94;;;20.00;43.14
64368;BME280;50692;53.314;-6.300;2023-04-23T12:57:03;100076.78;;;19.93;43.00
64368;BME280;50692;53.314;-6.300;2023-04-23T12:59:49;100091.41;;;20.25;42.97
64368;BME280;50692;53.314;-6.300;2023-04-23T13:02:35;100082.66;;;20.23;41.60
64368;BME280;50692;53.314;-6.300;2023-04-23T13:05:21;100092.63;;;19.78;41.79
64368;BME280;50692;53.314;-6.300;2023-04-23T13:08:07;100097.63;;;18.92;43.84
64368;BME280;50692;53.314;-6.300;2023-04-23T13:10:53;100108.59;;;18.14;45.97
64368;BME280;50692;53.314;-6.300;2023-04-23T13:13:38;100103.84;;;17.21;48.84
64368;BME280;50692;53.314;-6.300;2023-04-23T13:16:25;100098.00;;;16.77;50.48
64368;BME280;50692;53.314;-6.300;2023-04-23T13:19:12;100107.84;;;16.76;50.31
64368;BME280;50692;53.314;-6.300;2023-04-23T13:21:57;100100.06;;;17.43;49.74
64368;BME280;50692;53.314;-6.300;2023-04-23T13:24:43;100109.34;;;18.07;47.95
64368;BME280;50692;53.314;-6.300;2023-04-23T13:27:29;100116.56;;;17.77;48.34
64368;BME280;50692;53.314;-6.300;2023-04-23T13:30:15;100120.44;;;17.44;48.11
64368;BME280;50692;53.314;-6.300;2023-04-23T13:33:01;100118.53;;;16.86;47.93
64368;BME280;50692;53.314;-6.300;2023-04-23T13:35:47;100120.78;;;16.29;49.37
64368;BME280;50692;53.314;-6.300;2023-04-23T13:38:33;100123.34;;;15.89;50.76
64368;BME280;50692;53.314;-6.300;2023-04-23T13:41:19;100117.31;;;15.66;51.73
64368;BME280;50692;53.314;-6.300;2023-04-23T13:44:05;100121.47;;;15.48;52.93
64368;BME280;50692;53.314;-6.300;2023-04-23T13:46:50;100117.72;;;15.39;54.66
64368;BME280;50692;53.314;-6.300;2023-04-23T13:49:36;100119.41;;;15.19;54.51
64368;BME280;50692;53.314;-6.300;2023-04-23T13:52:22;100123.75;;;15.09;54.61
64368;BME280;50692;53.314;-6.300;2023-04-23T13:55:08;100121.28;;;15.28;55.85
64368;BME280;50692;53.314;-6.300;2023-04-23T13:57:54;100119.84;;;15.56;55.51
64368;BME280;50692;53.314;-6.300;2023-04-23T14:00:42;100125.59;;;16.05;55.47
64368;BME280;50692;53.314;-6.300;2023-04-23T14:03:28;100136.41;;;16.95;53.34
64368;BME280;50692;53.314;-6.300;2023-04-23T14:06:14;100136.91;;;17.97;51.42
64368;BME280;50692;53.314;-6.300;2023-04-23T14:09:00;100134.69;;;18.87;48.25
64368;BME280;50692;53.314;-6.300;2023-04-23T14:11:46;100131.09;;;19.06;46.41
64368;BME280;50692;53.314;-6.300;2023-04-23T14:14:31;100134.44;;;19.08;46.26
64368;BME280;50692;53.314;-6.300;2023-04-23T14:17:17;100136.69;;;19.48;44.45
64368;BME280;50692;53.314;-6.300;2023-04-23T14:20:04;100128.63;;;20.02;43.09
64368;BME280;50692;53.314;-6.300;2023-04-23T14:22:56;100134.78;;;19.94;41.70
64368;BME280;50692;53.314;-6.300;2023-04-23T14:25:45;100138.78;;;19.54;42.36
64368;BME280;50692;53.314;-6.300;2023-04-23T14:28:38;100131.81;;;18.98;43.14
64368;BME280;50692;53.314;-6.300;2023-04-23T14:31:25;100132.13;;;18.58;44.15
64368;BME280;50692;53.314;-6.300;2023-04-23T14:34:11;100141.25;;;18.18;45.24
64368;BME280;50692;53.314;-6.300;2023-04-23T14:36:57;100143.25;;;17.87;46.31